Time;durP1;ratioP1;P1;durP2;ratioP2;P2;SDS_P1;SDS_P2;PMS_P1;PMS_P2;Temp;Humidity;BMP_temperature;BMP_pressure;BME280_temperature;BME280_humidity;BME280_pressure;Samples;Min_cycle;Max_cycle;Signal;HPM_P1;HPM_P2
2023/05/23 00:01:45;;;;;;;40.92;15.57;;;;;;;;;;4934314;28;20028;-79
2023/05/23 00:04:17;;;;;;;34.38;14.55;;;;;;;;;;4919606;29;20032;-80
2023/05/23 00:06:49;;;;;;;31.10;14.35;;;;;;;;;;4925690;29;20148;-79
2023/05/23 00:09:15;;;;;;;32.13;15.00;;;;;;;;;;4939734;28;20105;-79
2023/05/23 00:11:44;;;;;;;32.42;14.48;;;;;;;;;;4919522;29;20127;-78
2023/05/23 00:14:13;;;;;;;38.63;14.27;;;;;;;;;;4918348;29;20107;-78
2023/05/23 00:16:43;;;;;;;27.85;13.50;;;;;;;;;;4923811;29;20114;-77
2023/05/23 00:19:10;;;;;;;41.45;14.07;;;;;;;;;;4917731;29;20040;-78
2023/05/23 00:21:36;;;;;;;38.33;13.43;;;;;;;;;;4918028;29;20551;-77
2023/05/23 00:24:03;;;;;;;31.83;12.95;;;;;;;;;;4938416;29;20043;-78
2023/05/23 00:26:29;;;;;;;34.80;13.27;;;;;;;;;;4924290;29;20048;-78
2023/05/23 00:28:55;;;;;;;38.25;13.98;;;;;;;;;;4934183;29;20082;-77
2023/05/23 00:31:21;;;;;;;32.38;13.07;;;;;;;;;;4919910;29;22033;-77
2023/05/23 00:33:47;;;;;;;34.42;12.10;;;;;;;;;;4914936;29;20073;-77
2023/05/23 00:36:13;;;;;;;34.10;12.07;;;;;;;;;;4917741;29;20062;-79
2023/05/23 00:38:39;;;;;;;38.35;14.38;;;;;;;;;;4924367;29;20036;-76
2023/05/23 00:41:06;;;;;;;29.15;11.93;;;;;;;;;;4917545;29;20076;-76
2023/05/23 00:43:32;;;;;;;29.50;12.65;;;;;;;;;;4915998;29;20091;-75
2023/05/23 00:45:58;;;;;;;34.08;11.00;;;;;;;;;;4922430;29;20494;-75
2023/05/23 00:48:25;;;;;;;32.30;11.50;;;;;;;;;;4917524;29;20153;-76
2023/05/23 00:50:52;;;;;;;32.33;10.85;;;;;;;;;;4917653;29;20028;-76
2023/05/23 00:53:18;;;;;;;28.30;10.45;;;;;;;;;;4919435;29;20032;-76
2023/05/23 00:55:44;;;;;;;32.00;10.45;;;;;;;;;;4914877;29;20483;-76
2023/05/23 00:58:11;;;;;;;31.90;11.68;;;;;;;;;;4914864;29;20028;-76
2023/05/23 01:00:38;;;;;;;28.77;10.20;;;;;;;;;;4918442;29;20103;-75
2023/05/23 01:03:04;;;;;;;29.42;10.68;;;;;;;;;;4919037;29;20036;-75
2023/05/23 01:05:30;;;;;;;20.80;9.45;;;;;;;;;;4923031;29;20564;-75
2023/05/23 01:07:56;;;;;;;27.08;10.82;;;;;;;;;;4917969;29;20047;-75
2023/05/23 01:10:26;;;;;;;26.23;9.57;;;;;;;;;;4949508;28;20031;-78
2023/05/23 01:13:12;;;;;;;24.88;10.18;;;;;;;;;;4918308;29;20036;-78
2023/05/23 01:15:45;;;;;;;23.25;9.52;;;;;;;;;;4920871;29;20036;-78
2023/05/23 01:18:11;;;;;;;31.90;9.55;;;;;;;;;;4916427;29;20032;-75
2023/05/23 01:20:44;;;;;;;29.35;9.98;;;;;;;;;;4918898;29;20438;-75
2023/05/23 01:23:14;;;;;;;24.88;9.40;;;;;;;;;;4935402;29;20059;-76
2023/05/23 01:25:52;;;;;;;27.33;10.18;;;;;;;;;;4914633;29;20036;-76
2023/05/23 01:28:19;;;;;;;22.73;10.30;;;;;;;;;;4920877;29;20489;-75
2023/05/23 01:30:47;;;;;;;31.92;11.13;;;;;;;;;;4918639;29;20466;-76
2023/05/23 01:33:15;;;;;;;28.05;10.10;;;;;;;;;;4918814;29;20095;-75
2023/05/23 01:35:42;;;;;;;39.10;10.65;;;;;;;;;;4917161;29;20438;-75
2023/05/23 01:38:08;;;;;;;29.10;10.23;;;;;;;;;;4933020;28;20110;-75
2023/05/23 01:40:36;;;;;;;29.55;11.50;;;;;;;;;;4915649;29;20447;-74
2023/05/23 01:43:02;;;;;;;28.73;10.57;;;;;;;;;;4917323;29;20032;-77
2023/05/23 01:45:28;;;;;;;29.65;9.18;;;;;;;;;;4920999;29;20082;-77
2023/05/23 01:47:55;;;;;;;42.45;11.10;;;;;;;;;;4917260;29;20024;-75
2023/05/23 01:50:22;;;;;;;24.60;9.82;;;;;;;;;;4925053;29;20035;-78
2023/05/23 01:52:48;;;;;;;26.02;8.55;;;;;;;;;;4912644;29;20039;-78
2023/05/23 01:55:21;;;;;;;26.67;9.35;;;;;;;;;;4918600;29;20043;-78
2023/05/23 01:57:48;;;;;;;26.38;9.30;;;;;;;;;;4924619;29;20438;-78
2023/05/23 02:00:14;;;;;;;24.02;8.93;;;;;;;;;;4922415;29;20067;-78
2023/05/23 02:02:40;;;;;;;28.15;8.98;;;;;;;;;;4919450;29;20048;-75
2023/05/23 02:05:07;;;;;;;29.25;8.77;;;;;;;;;;4922889;29;20496;-76
2023/05/23 02:07:33;;;;;;;25.02;8.60;;;;;;;;;;4938106;28;20039;-76
2023/05/23 02:09:59;;;;;;;28.52;8.50;;;;;;;;;;4919487;29;20028;-77
2023/05/23 02:12:25;;;;;;;21.60;7.45;;;;;;;;;;4940146;28;20032;-76
2023/05/23 02:14:51;;;;;;;22.60;8.25;;;;;;;;;;4924426;29;20079;-75
2023/05/23 02:17:17;;;;;;;19.77;7.30;;;;;;;;;;4915943;29;20036;-76
2023/05/23 02:19:43;;;;;;;22.23;7.97;;;;;;;;;;4920597;29;20509;-76
2023/05/23 02:22:09;;;;;;;29.27;8.07;;;;;;;;;;4923682;29;20056;-78
2023/05/23 02:24:35;;;;;;;24.75;7.35;;;;;;;;;;4917737;29;20028;-75
2023/05/23 02:27:02;;;;;;;23.30;7.80;;;;;;;;;;4924346;29;20114;-78
2023/05/23 02:29:28;;;;;;;29.70;9.52;;;;;;;;;;4937543;28;20060;-75
2023/05/23 02:31:54;;;;;;;25.23;7.78;;;;;;;;;;4918821;29;20039;-75
2023/05/23 02:34:20;;;;;;;24.48;7.72;;;;;;;;;;4944759;28;20058;-78
2023/05/23 02:36:46;;;;;;;21.60;7.82;;;;;;;;;;4919788;29;20047;-77
2023/05/23 02:39:12;;;;;;;26.15;7.72;;;;;;;;;;4921847;29;20035;-75
2023/05/23 02:41:38;;;;;;;21.85;7.22;;;;;;;;;;4921064;29;20035;-74
2023/05/23 02:44:04;;;;;;;24.35;8.68;;;;;;;;;;4920456;29;20025;-75
2023/05/23 02:46:30;;;;;;;23.92;8.27;;;;;;;;;;4947324;28;20396;-75
2023/05/23 02:48:56;;;;;;;22.17;8.30;;;;;;;;;;4932797;29;20052;-75
2023/05/23 02:51:22;;;;;;;23.90;7.97;;;;;;;;;;4923010;29;20047;-75
2023/05/23 02:53:48;;;;;;;26.10;8.52;;;;;;;;;;4923364;29;20399;-78
2023/05/23 02:56:14;;;;;;;20.05;7.32;;;;;;;;;;4918636;29;20044;-78
2023/05/23 02:58:41;;;;;;;31.25;8.50;;;;;;;;;;4924423;29;20053;-78
2023/05/23 03:01:07;;;;;;;25.00;8.43;;;;;;;;;;4924074;29;20055;-78
2023/05/23 03:03:33;;;;;;;24.30;7.90;;;;;;;;;;4917856;29;20486;-75
2023/05/23 03:06:03;;;;;;;28.20;8.50;;;;;;;;;;4919002;29;20063;-76
2023/05/23 03:08:29;;;;;;;25.60;7.55;;;;;;;;;;4919598;29;20489;-78
2023/05/23 03:10:55;;;;;;;28.70;9.18;;;;;;;;;;4920792;29;20060;-78
2023/05/23 03:13:21;;;;;;;27.00;7.80;;;;;;;;;;4918822;29;20048;-78
2023/05/23 03:15:47;;;;;;;25.50;7.10;;;;;;;;;;4924733;29;20096;-77
2023/05/23 03:18:13;;;;;;;28.75;7.63;;;;;;;;;;4920021;29;20087;-78
2023/05/23 03:20:39;;;;;;;19.75;6.07;;;;;;;;;;4920750;29;20025;-78
2023/05/23 03:23:06;;;;;;;28.75;7.25;;;;;;;;;;4921325;29;20036;-77
2023/05/23 03:25:32;;;;;;;24.88;5.93;;;;;;;;;;4923471;29;20103;-77
2023/05/23 03:27:58;;;;;;;23.70;5.60;;;;;;;;;;4920322;29;20088;-77
2023/05/23 03:30:24;;;;;;;24.30;5.75;;;;;;;;;;4924732;29;20099;-77
2023/05/23 03:32:50;;;;;;;19.25;5.97;;;;;;;;;;4921652;29;20036;-77
2023/05/23 03:35:16;;;;;;;21.25;5.97;;;;;;;;;;4920517;29;20051;-77
2023/05/23 03:37:42;;;;;;;16.38;5.25;;;;;;;;;;4920407;29;20126;-77
2023/05/23 03:40:08;;;;;;;22.35;6.13;;;;;;;;;;4935644;28;20035;-77
2023/05/23 03:42:35;;;;;;;25.35;5.85;;;;;;;;;;4923484;29;20032;-76
2023/05/23 03:45:01;;;;;;;24.08;5.88;;;;;;;;;;4921168;29;20092;-77
2023/05/23 03:47:27;;;;;;;23.83;6.20;;;;;;;;;;4947332;28;20040;-77
2023/05/23 03:49:53;;;;;;;18.92;5.75;;;;;;;;;;4924889;29;20044;-77
2023/05/23 03:52:19;;;;;;;24.33;6.20;;;;;;;;;;4919556;29;20100;-78
2023/05/23 03:54:45;;;;;;;24.92;6.20;;;;;;;;;;4920909;29;20053;-77
2023/05/23 03:57:11;;;;;;;17.92;5.60;;;;;;;;;;4918009;29;20401;-79
2023/05/23 03:59:38;;;;;;;19.95;5.68;;;;;;;;;;4918905;29;20138;-77
2023/05/23 04:02:04;;;;;;;17.48;5.38;;;;;;;;;;4925555;29;20181;-77
2023/05/23 04:04:31;;;;;;;17.38;5.82;;;;;;;;;;4918873;29;20020;-78
2023/05/23 04:06:57;;;;;;;21.77;5.75;;;;;;;;;;4925329;29;20040;-78
2023/05/23 04:09:23;;;;;;;19.40;5.50;;;;;;;;;;4926078;29;20118;-77
2023/05/23 04:11:49;;;;;;;17.77;5.10;;;;;;;;;;4914565;29;20028;-77
2023/05/23 04:14:16;;;;;;;22.60;5.47;;;;;;;;;;4921268;29;20035;-78
2023/05/23 04:16:43;;;;;;;21.98;4.85;;;;;;;;;;4916647;29;20035;-77
2023/05/23 04:19:11;;;;;;;16.70;5.10;;;;;;;;;;4950415;28;20053;-77
2023/05/23 04:21:37;;;;;;;28.05;5.97;;;;;;;;;;4916370;29;20459;-77
2023/05/23 04:24:03;;;;;;;19.77;5.03;;;;;;;;;;4916193;29;20043;-77
2023/05/23 04:26:29;;;;;;;19.77;5.07;;;;;;;;;;4922074;29;20048;-77
2023/05/23 04:28:55;;;;;;;18.33;5.32;;;;;;;;;;4922866;29;20032;-77
2023/05/23 04:31:21;;;;;;;13.85;4.38;;;;;;;;;;4930564;28;20032;-77
2023/05/23 04:33:47;;;;;;;15.02;4.25;;;;;;;;;;4920625;29;20027;-77
2023/05/23 04:36:13;;;;;;;18.23;4.72;;;;;;;;;;4917577;29;20040;-78
2023/05/23 04:38:40;;;;;;;21.10;5.05;;;;;;;;;;4917136;29;20036;-77
2023/05/23 04:41:06;;;;;;;17.50;5.25;;;;;;;;;;4921639;29;20032;-77
2023/05/23 04:43:32;;;;;;;15.35;4.45;;;;;;;;;;4918762;29;20036;-77
2023/05/23 04:45:59;;;;;;;14.48;4.63;;;;;;;;;;4923317;29;20071;-76
2023/05/23 04:48:26;;;;;;;19.98;4.13;;;;;;;;;;4933390;29;20040;-77
2023/05/23 04:50:54;;;;;;;21.08;5.78;;;;;;;;;;4937207;28;20363;-77
2023/05/23 04:53:20;;;;;;;16.23;4.57;;;;;;;;;;4935215;28;20490;-77
2023/05/23 04:55:46;;;;;;;16.73;4.65;;;;;;;;;;4916772;29;20042;-77
2023/05/23 04:58:13;;;;;;;16.80;5.75;;;;;;;;;;4917449;29;21004;-78
2023/05/23 05:00:39;;;;;;;15.38;5.10;;;;;;;;;;4922899;29;20036;-77
2023/05/23 05:03:05;;;;;;;24.15;6.07;;;;;;;;;;4917798;29;20023;-76
2023/05/23 05:05:31;;;;;;;18.70;5.18;;;;;;;;;;4919443;29;20062;-77
2023/05/23 05:07:57;;;;;;;19.38;5.72;;;;;;;;;;4927337;29;20434;-80
2023/05/23 05:10:23;;;;;;;19.10;5.78;;;;;;;;;;4933870;29;20127;-82
2023/05/23 05:12:49;;;;;;;18.58;5.28;;;;;;;;;;4925845;29;20166;-79
2023/05/23 05:15:18;;;;;;;14.15;4.72;;;;;;;;;;4927421;29;20031;-80
2023/05/23 05:17:44;;;;;;;12.38;5.35;;;;;;;;;;4929709;29;20063;-81
2023/05/23 05:20:10;;;;;;;19.42;5.68;;;;;;;;;;4941531;29;20031;-80
2023/05/23 05:22:41;;;;;;;26.58;6.38;;;;;;;;;;4943710;29;20498;-78
2023/05/23 05:25:07;;;;;;;16.42;6.57;;;;;;;;;;4927077;29;20024;-78
2023/05/23 05:27:33;;;;;;;20.00;7.10;;;;;;;;;;4920501;29;20036;-76
2023/05/23 05:30:03;;;;;;;18.23;4.90;;;;;;;;;;4923927;29;20126;-78
2023/05/23 05:32:32;;;;;;;18.33;5.05;;;;;;;;;;4954021;28;20541;-75
2023/05/23 05:34:58;;;;;;;17.83;5.85;;;;;;;;;;4924904;29;20042;-80
2023/05/23 05:37:24;;;;;;;14.85;4.75;;;;;;;;;;4920437;29;20126;-82
2023/05/23 05:39:50;;;;;;;24.70;5.78;;;;;;;;;;4933093;29;20150;-79
2023/05/23 05:42:16;;;;;;;20.88;5.07;;;;;;;;;;4928105;29;20035;-82
2023/05/23 05:44:42;;;;;;;18.77;4.47;;;;;;;;;;4922010;29;20038;-82
2023/05/23 05:47:08;;;;;;;11.75;4.32;;;;;;;;;;4945898;28;20525;-81
2023/05/23 05:49:34;;;;;;;15.27;4.00;;;;;;;;;;4919653;29;20086;-83
2023/05/23 05:52:00;;;;;;;14.45;3.78;;;;;;;;;;4922989;29;20052;-83
2023/05/23 05:54:26;;;;;;;15.80;3.80;;;;;;;;;;4922478;29;20111;-83
2023/05/23 05:56:52;;;;;;;10.13;3.97;;;;;;;;;;4923823;29;20130;-84
2023/05/23 05:59:18;;;;;;;18.35;4.72;;;;;;;;;;4939726;29;20035;-86
2023/05/23 06:01:44;;;;;;;16.77;3.10;;;;;;;;;;4926849;29;20071;-83
2023/05/23 06:04:11;;;;;;;13.65;3.28;;;;;;;;;;4923914;29;20036;-85
2023/05/23 06:06:37;;;;;;;19.27;4.70;;;;;;;;;;4920916;29;20059;-79
2023/05/23 06:09:03;;;;;;;26.70;5.63;;;;;;;;;;4922420;29;20048;-81
2023/05/23 06:11:29;;;;;;;16.20;4.55;;;;;;;;;;4933543;29;20032;-81
2023/05/23 06:13:55;;;;;;;17.48;3.80;;;;;;;;;;4927921;29;20036;-76
2023/05/23 06:16:21;;;;;;;17.05;3.92;;;;;;;;;;4922748;29;20031;-78
2023/05/23 06:18:47;;;;;;;13.70;3.53;;;;;;;;;;4932412;29;20024;-77
2023/05/23 06:21:13;;;;;;;18.80;3.72;;;;;;;;;;4926251;29;20144;-77
2023/05/23 06:23:40;;;;;;;15.13;3.88;;;;;;;;;;4943854;28;20442;-79
2023/05/23 06:26:09;;;;;;;20.58;4.07;;;;;;;;;;4922602;29;20159;-77
2023/05/23 06:28:38;;;;;;;26.83;4.28;;;;;;;;;;4920950;29;21681;-78
2023/05/23 06:31:04;;;;;;;23.13;4.35;;;;;;;;;;4924372;29;20044;-76
2023/05/23 06:33:30;;;;;;;18.77;4.32;;;;;;;;;;4927378;29;20112;-76
2023/05/23 06:35:56;;;;;;;20.02;6.00;;;;;;;;;;4917121;29;20032;-77
2023/05/23 06:38:22;;;;;;;25.15;5.35;;;;;;;;;;4919326;29;20071;-78
2023/05/23 06:40:48;;;;;;;21.42;4.60;;;;;;;;;;4924785;29;20510;-76
2023/05/23 06:43:15;;;;;;;28.08;5.25;;;;;;;;;;4926443;29;20039;-78
2023/05/23 06:45:41;;;;;;;24.10;4.05;;;;;;;;;;4926802;29;20486;-76
2023/05/23 06:48:07;;;;;;;22.67;4.50;;;;;;;;;;4929661;29;20090;-78
2023/05/23 06:50:33;;;;;;;22.10;4.22;;;;;;;;;;4928570;29;20036;-77
2023/05/23 06:52:59;;;;;;;25.85;3.85;;;;;;;;;;4926348;29;20039;-78
2023/05/23 06:55:25;;;;;;;25.55;4.40;;;;;;;;;;4929232;29;20047;-77
2023/05/23 06:57:51;;;;;;;21.13;4.80;;;;;;;;;;4924513;29;20040;-79
2023/05/23 07:00:18;;;;;;;24.10;5.25;;;;;;;;;;4935898;29;20067;-83
2023/05/23 07:02:45;;;;;;;28.13;5.25;;;;;;;;;;4944012;29;20044;-79
2023/05/23 07:05:11;;;;;;;28.42;4.63;;;;;;;;;;4938571;29;20063;-78
2023/05/23 07:07:37;;;;;;;31.67;4.53;;;;;;;;;;4924659;29;20435;-81
2023/05/23 07:10:03;;;;;;;26.25;4.03;;;;;;;;;;4925498;29;20038;-82
2023/05/23 07:12:29;;;;;;;22.95;3.75;;;;;;;;;;4921335;29;20176;-80
2023/05/23 07:14:55;;;;;;;23.95;3.72;;;;;;;;;;4923299;29;20044;-81
2023/05/23 07:17:21;;;;;;;18.83;3.97;;;;;;;;;;4924455;29;20043;-81
2023/05/23 07:19:47;;;;;;;21.48;5.53;;;;;;;;;;4926369;29;20506;-86
2023/05/23 07:22:13;;;;;;;27.55;4.85;;;;;;;;;;4922529;29;20050;-78
2023/05/23 07:24:39;;;;;;;19.30;3.90;;;;;;;;;;4925854;29;20482;-77
2023/05/23 07:27:05;;;;;;;17.35;2.80;;;;;;;;;;4926254;29;20051;-78
2023/05/23 07:29:31;;;;;;;17.77;3.95;;;;;;;;;;4924950;29;20092;-77
2023/05/23 07:31:58;;;;;;;23.38;3.85;;;;;;;;;;4928333;29;20036;-76
2023/05/23 07:34:25;;;;;;;20.75;4.20;;;;;;;;;;4927357;29;20035;-74
2023/05/23 07:36:51;;;;;;;16.83;3.00;;;;;;;;;;4926782;29;20071;-74
2023/05/23 07:39:21;;;;;;;20.52;4.30;;;;;;;;;;4927812;29;20107;-75
2023/05/23 07:41:48;;;;;;;24.83;4.07;;;;;;;;;;4926326;29;20482;-77
2023/05/23 07:44:15;;;;;;;21.85;6.05;;;;;;;;;;4927363;29;20028;-77
2023/05/23 07:46:41;;;;;;;13.57;3.58;;;;;;;;;;4929952;29;20118;-75
2023/05/23 07:49:07;;;;;;;18.63;4.10;;;;;;;;;;4916546;29;20544;-76
2023/05/23 07:51:33;;;;;;;17.83;3.40;;;;;;;;;;4933229;29;20039;-76
2023/05/23 07:53:59;;;;;;;25.08;5.05;;;;;;;;;;4920575;29;20039;-75
2023/05/23 07:56:25;;;;;;;14.38;3.72;;;;;;;;;;4964103;28;20044;-75
2023/05/23 07:58:51;;;;;;;20.50;3.65;;;;;;;;;;4929281;29;20036;-74
2023/05/23 08:01:18;;;;;;;16.50;3.75;;;;;;;;;;4919958;29;20039;-74
2023/05/23 08:03:44;;;;;;;14.48;3.90;;;;;;;;;;4919666;29;20485;-74
2023/05/23 08:06:10;;;;;;;20.42;4.88;;;;;;;;;;4928395;29;20401;-75
2023/05/23 08:08:36;;;;;;;22.40;4.63;;;;;;;;;;4920812;29;20082;-74
2023/05/23 08:11:02;;;;;;;13.55;3.65;;;;;;;;;;4925222;29;20043;-74
2023/05/23 08:13:28;;;;;;;20.27;4.32;;;;;;;;;;4924748;29;20147;-77
2023/05/23 08:15:54;;;;;;;28.13;4.72;;;;;;;;;;4923603;29;20485;-73
2023/05/23 08:18:21;;;;;;;14.93;3.90;;;;;;;;;;4926321;29;20050;-75
2023/05/23 08:20:46;;;;;;;19.85;5.68;;;;;;;;;;4922647;29;20036;-75
2023/05/23 08:23:13;;;;;;;17.75;4.20;;;;;;;;;;4922405;29;20355;-74
2023/05/23 08:25:39;;;;;;;18.60;3.47;;;;;;;;;;4922563;29;20070;-74
2023/05/23 08:28:05;;;;;;;16.70;2.95;;;;;;;;;;4928778;29;20118;-75
2023/05/23 08:30:32;;;;;;;20.48;5.18;;;;;;;;;;4921514;29;20554;-76
2023/05/23 08:32:59;;;;;;;22.85;7.97;;;;;;;;;;4924056;29;20028;-74
2023/05/23 08:35:28;;;;;;;22.33;4.35;;;;;;;;;;4924123;29;20064;-73
2023/05/23 08:37:56;;;;;;;15.65;4.43;;;;;;;;;;4925155;29;20155;-76
2023/05/23 08:40:24;;;;;;;13.85;3.53;;;;;;;;;;4923528;29;20558;-75
2023/05/23 08:42:50;;;;;;;17.23;3.58;;;;;;;;;;4924107;29;20031;-76
2023/05/23 08:45:17;;;;;;;21.75;4.18;;;;;;;;;;4928311;29;20036;-76
2023/05/23 08:47:44;;;;;;;20.05;4.18;;;;;;;;;;4922184;29;20051;-74
2023/05/23 08:50:12;;;;;;;18.58;3.72;;;;;;;;;;4925331;29;20036;-80
2023/05/23 08:52:42;;;;;;;19.20;3.78;;;;;;;;;;4942752;29;20034;-78
2023/05/23 08:55:11;;;;;;;17.65;3.58;;;;;;;;;;4925438;29;20189;-78
2023/05/23 08:57:38;;;;;;;19.13;3.63;;;;;;;;;;4926194;29;20031;-76
2023/05/23 09:00:09;;;;;;;19.75;3.70;;;;;;;;;;4923060;29;20091;-76
2023/05/23 09:02:35;;;;;;;18.00;3.83;;;;;;;;;;4923125;29;20032;-77
2023/05/23 09:05:01;;;;;;;13.95;3.08;;;;;;;;;;4925400;29;20068;-78
2023/05/23 09:07:28;;;;;;;12.18;3.53;;;;;;;;;;4926297;29;20590;-78
2023/05/23 09:09:54;;;;;;;15.13;3.75;;;;;;;;;;4924593;29;20172;-75
2023/05/23 09:12:23;;;;;;;19.33;5.45;;;;;;;;;;4925964;29;20482;-73
2023/05/23 09:14:50;;;;;;;23.88;4.63;;;;;;;;;;4924109;29;20369;-73
2023/05/23 09:17:19;;;;;;;15.35;3.45;;;;;;;;;;4922560;29;20040;-75
2023/05/23 09:19:48;;;;;;;16.10;3.88;;;;;;;;;;4922819;29;20047;-76
2023/05/23 09:22:14;;;;;;;22.02;3.40;;;;;;;;;;4935545;29;20028;-76
2023/05/23 09:24:40;;;;;;;15.23;3.60;;;;;;;;;;4933626;29;20067;-76
2023/05/23 09:27:07;;;;;;;19.67;3.78;;;;;;;;;;4933502;29;20067;-76
2023/05/23 09:29:40;;;;;;;14.43;3.67;;;;;;;;;;4936243;29;20083;-76
2023/05/23 09:32:19;;;;;;;19.20;3.83;;;;;;;;;;4932603;29;20024;-76
2023/05/23 09:34:55;;;;;;;15.40;3.05;;;;;;;;;;4925977;29;20055;-76
2023/05/23 09:37:23;;;;;;;16.15;3.53;;;;;;;;;;4940421;29;20096;-76
2023/05/23 09:39:50;;;;;;;16.08;3.90;;;;;;;;;;4914421;29;20060;-75
2023/05/23 09:42:22;;;;;;;16.77;3.63;;;;;;;;;;4923252;29;20203;-76
2023/05/23 09:44:48;;;;;;;;;;;16.70;99.90;;;;;;4929386;29;20087;-76
2023/05/23 09:47:17;;;;;;;15.27;2.88;;;;;;;;;;4927829;29;19922;-78
2023/05/23 09:49:44;;;;;;;18.38;4.32;;;;;;;;;;4916922;29;20638;-80
2023/05/23 09:52:10;;;;;;;15.25;3.45;;;;;;;;;;4932875;29;20621;-81
2023/05/23 09:54:36;;;;;;;14.20;3.03;;;;;;;;;;4921526;29;20067;-76
2023/05/23 09:57:04;;;;;;;15.85;3.50;;;;;;;;;;4928035;28;20036;-78
2023/05/23 09:59:31;;;;;;;17.08;3.85;;;;;;;;;;4941839;29;20090;-79
2023/05/23 10:01:59;;;;;;;16.15;3.25;;;;;;;;;;4929851;28;20430;-77
2023/05/23 10:04:26;;;;;;;14.27;4.07;;;;;;;;;;4920775;29;20497;-77
2023/05/23 10:07:00;;;;;;;15.93;3.45;;;;;;;;;;4931084;29;20047;-79
2023/05/23 10:09:28;;;;;;;17.60;3.45;;;;;;;;;;4932895;29;20470;-79
2023/05/23 10:12:13;;;;;;;18.13;3.33;;;;;;;;;;4930306;29;20047;-78
2023/05/23 10:14:41;;;;;;;17.75;3.35;;;;;;;;;;4924704;29;20580;-79
2023/05/23 10:17:12;;;;;;;16.45;3.00;;;;;;;;;;4931670;29;20449;-79
2023/05/23 10:19:43;;;;;;;12.65;3.40;;;;;;;;;;4934864;29;20498;-78
2023/05/23 10:22:10;;;;;;;22.55;3.58;;;;;;;;;;4931593;29;20401;-79
2023/05/23 10:24:37;;;;;;;13.85;3.50;;;;;;;;;;4932704;29;20039;-78
2023/05/23 10:27:03;;;;;;;15.43;3.85;;;;;;;;;;4932604;29;20040;-79
2023/05/23 10:29:30;;;;;;;22.45;4.30;;;;;;;;;;4935495;29;20048;-78
2023/05/23 10:31:57;;;;;;;19.15;3.75;;;;;;;;;;4922347;29;20036;-78
2023/05/23 10:34:27;;;;;;;20.42;4.07;;;;;;;;;;4922919;29;20036;-80
2023/05/23 10:36:53;;;;;;;12.75;3.30;;;;;;;;;;4932517;29;20040;-79
2023/05/23 10:39:26;;;;;;;18.38;3.25;;;;;;;;;;4934948;29;20410;-79
2023/05/23 10:41:55;;;;;;;16.63;3.35;;;;;;;;;;4932979;29;20034;-79
2023/05/23 10:44:26;;;;;;;14.90;3.50;;;;;;;;;;4934445;29;20028;-80
2023/05/23 10:46:53;;;;;;;14.93;3.20;;;;;;;;;;4929908;29;20032;-78
2023/05/23 10:49:20;;;;;;;9.95;2.28;;;;;;;;;;4966082;28;20457;-81
2023/05/23 10:51:50;;;;;;;21.73;3.08;;;;;;;;;;4932053;29;20493;-81
2023/05/23 10:54:18;;;;;;;13.93;3.22;;;;;;;;;;4927238;29;20028;-81
2023/05/23 10:56:45;;;;;;;13.82;2.78;;;;;;;;;;4927910;29;20027;-76
2023/05/23 10:59:20;;;;;;;16.13;3.28;;;;;;;;;;4935740;29;20401;-81
2023/05/23 11:01:46;;;;;;;17.25;2.88;;;;;;;;;;4941974;29;20016;-84
2023/05/23 11:04:13;;;;;;;15.95;3.28;;;;;;;;;;4959578;28;20509;-83
2023/05/23 11:06:47;;;;;;;9.80;2.95;;;;;;;;;;4933687;29;20038;-84
2023/05/23 11:09:17;;;;;;;14.25;3.85;;;;;;;;;;4931721;29;20122;-84
2023/05/23 11:11:52;;;;;;;16.95;3.10;;;;;;;;;;4957039;28;20430;-84
2023/05/23 11:14:19;;;;;;;13.18;3.22;;;;;;;;;;4932071;28;20097;-81
2023/05/23 11:16:47;;;;;;;19.23;4.90;;;;;;;;;;4932014;29;20023;-78
2023/05/23 11:19:20;;;;;;;25.45;11.35;;;;;;;;;;4924715;29;20087;-77
2023/05/23 11:21:51;;;;;;;15.73;3.85;;;;;;;;;;4919877;29;20040;-77
2023/05/23 11:24:17;;;;;;;12.77;3.00;;;;;;;;;;4927839;29;21684;-79
2023/05/23 11:26:58;;;;;;;15.48;3.08;;;;;;;;;;4926896;29;20558;-81
2023/05/23 11:29:25;;;;;;;14.95;2.85;;;;;;;;;;4926842;29;20112;-77
2023/05/23 11:31:51;;;;;;;14.10;3.65;;;;;;;;;;4942451;29;20545;-77
2023/05/23 11:34:20;;;;;;;16.73;3.20;;;;;;;;;;4933976;29;20039;-77
2023/05/23 11:36:46;;;;;;;15.75;3.03;;;;;;;;;;4929988;29;20036;-78
2023/05/23 11:39:14;;;;;;;12.05;2.88;;;;;;;;;;4927185;29;20036;-80
2023/05/23 11:41:42;;;;;;;11.85;2.65;;;;;;;;;;4929479;29;20676;-79
2023/05/23 11:44:12;;;;;;;12.02;2.92;;;;;;;;;;4926602;29;20044;-84
2023/05/23 11:46:39;;;;;;;15.38;3.47;;;;;;;;;;4926490;29;20532;-80
2023/05/23 11:49:10;;;;;;;12.88;3.03;;;;;;;;;;4923941;29;20028;-80
2023/05/23 11:51:36;;;;;;;16.38;3.45;;;;;;;;;;4924653;29;20385;-80
2023/05/23 11:54:02;;;;;;;16.05;3.22;;;;;;;;;;4923509;29;20028;-76
2023/05/23 11:56:28;;;;;;;13.95;2.85;;;;;;;;;;4928623;29;20044;-75
2023/05/23 11:58:55;;;;;;;10.85;3.28;;;;;;;;;;4932183;29;20066;-75
2023/05/23 12:01:21;;;;;;;11.35;2.55;;;;;;;;;;4938053;29;20036;-75
2023/05/23 12:03:48;;;;;;;16.10;2.80;;;;;;;;;;4933154;29;20087;-75
2023/05/23 12:06:15;;;;;;;13.00;2.83;;;;;;;;;;4933267;29;20494;-75
2023/05/23 12:08:41;;;;;;;15.75;2.80;;;;;;;;;;4934651;29;20091;-75
2023/05/23 12:11:07;;;;;;;13.48;2.42;;;;;;;;;;4934816;29;20095;-75
2023/05/23 12:13:33;;;;;;;16.15;3.17;;;;;;;;;;4933272;29;20490;-75
2023/05/23 12:15:59;;;;;;;16.13;3.50;;;;;;;;;;4934561;29;20091;-75
2023/05/23 12:18:32;;;;;;;18.75;2.90;;;;;;;;;;4931856;29;20477;-75
2023/05/23 12:21:06;;;;;;;13.48;3.35;;;;;;;;;;4923915;29;20086;-76
2023/05/23 12:23:32;;;;;;;13.90;3.47;;;;;;;;;;4962644;28;20027;-76
2023/05/23 12:25:58;;;;;;;16.55;3.03;;;;;;;;;;4926506;29;20501;-75
2023/05/23 12:28:37;;;;;;;19.25;3.95;;;;;;;;;;4940214;29;20069;-75
2023/05/23 12:31:16;;;;;;;15.30;2.60;;;;;;;;;;4944754;29;20051;-75
2023/05/23 12:33:43;;;;;;;14.43;2.85;;;;;;;;;;4952652;28;20457;-75
2023/05/23 12:36:09;;;;;;;7.60;1.85;;;;;;;;;;4932606;29;20088;-75
2023/05/23 12:38:39;;;;;;;11.25;2.13;;;;;;;;;;4929679;29;20493;-75
2023/05/23 12:41:09;;;;;;;16.83;2.80;;;;;;;;;;4934230;29;20028;-75
2023/05/23 12:43:48;;;;;;;12.73;2.63;;;;;;;;;;4934114;29;20028;-75
2023/05/23 12:46:14;;;;;;;13.50;2.47;;;;;;;;;;4937958;29;20431;-74
2023/05/23 12:48:40;;;;;;;9.48;2.22;;;;;;;;;;4945475;28;20042;-75
2023/05/23 12:51:06;;;;;;;14.05;2.63;;;;;;;;;;4931910;29;20048;-74
2023/05/23 12:53:32;;;;;;;12.80;2.90;;;;;;;;;;4940797;29;20039;-75
2023/05/23 12:55:59;;;;;;;13.65;2.83;;;;;;;;;;4933281;29;20027;-75
2023/05/23 12:58:25;;;;;;;11.90;2.50;;;;;;;;;;4927764;29;20067;-74
2023/05/23 13:00:51;;;;;;;13.88;2.40;;;;;;;;;;4938951;29;20445;-74
2023/05/23 13:03:17;;;;;;;16.60;3.67;;;;;;;;;;4944622;29;20062;-76
2023/05/23 13:05:43;;;;;;;15.13;2.85;;;;;;;;;;4931834;29;20024;-75
2023/05/23 13:08:11;;;;;;;10.95;2.30;;;;;;;;;;4933917;29;20082;-76
2023/05/23 13:10:37;;;;;;;8.57;2.53;;;;;;;;;;4932162;29;20035;-75
2023/05/23 13:13:03;;;;;;;10.93;2.45;;;;;;;;;;4932155;29;20504;-75
2023/05/23 13:15:29;;;;;;;9.32;2.22;;;;;;;;;;4930409;29;20421;-75
2023/05/23 13:17:55;;;;;;;15.23;2.72;;;;;;;;;;4930323;29;20107;-75
2023/05/23 13:20:21;;;;;;;11.57;2.10;;;;;;;;;;4930521;29;20133;-76
2023/05/23 13:22:48;;;;;;;12.73;2.45;;;;;;;;;;4932059;29;20028;-75
2023/05/23 13:25:14;;;;;;;12.63;2.45;;;;;;;;;;4933889;29;20039;-75
2023/05/23 13:27:41;;;;;;;11.90;1.85;;;;;;;;;;4935882;29;20072;-75
2023/05/23 13:30:07;;;;;;;7.82;2.03;;;;;;;;;;4935786;29;20058;-75
2023/05/23 13:32:33;;;;;;;8.57;2.25;;;;;;;;;;4918372;29;20034;-74
2023/05/23 13:34:59;;;;;;;10.35;2.97;;;;;;;;;;4931343;29;20039;-75
2023/05/23 13:37:25;;;;;;;11.35;2.97;;;;;;;;;;4932141;29;20443;-75
2023/05/23 13:39:51;;;;;;;14.27;2.65;;;;;;;;;;4933833;29;20035;-75
2023/05/23 13:42:17;;;;;;;8.85;2.60;;;;;;;;;;4932007;29;20109;-75
2023/05/23 13:44:43;;;;;;;13.20;3.45;;;;;;;;;;4943577;29;20477;-74
2023/05/23 13:47:10;;;;;;;23.77;2.60;;;;;;;;;;4936046;29;20091;-75
2023/05/23 13:49:36;;;;;;;14.38;2.50;;;;;;;;;;4947344;28;20071;-74
2023/05/23 13:52:02;;;;;;;9.20;2.10;;;;;;;;;;4935581;29;20066;-76
2023/05/23 13:54:28;;;;;;;10.18;1.95;;;;;;;;;;4935010;29;20135;-74
2023/05/23 13:56:54;;;;;;;13.70;2.53;;;;;;;;;;4937636;29;20112;-74
2023/05/23 13:59:21;;;;;;;8.20;2.10;;;;;;;;;;4931588;29;20426;-75
2023/05/23 14:01:47;;;;;;;13.63;2.42;;;;;;;;;;4950484;29;20114;-75
2023/05/23 14:04:13;;;;;;;13.02;2.72;;;;;;;;;;4938699;29;20397;-75
2023/05/23 14:06:39;;;;;;;11.82;2.30;;;;;;;;;;4965410;28;20528;-75
2023/05/23 14:09:05;;;;;;;13.18;2.70;;;;;;;;;;4934854;29;20067;-75
2023/05/23 14:11:32;;;;;;;11.57;2.63;;;;;;;;;;4937590;29;20030;-75
2023/05/23 14:13:58;;;;;;;10.30;2.70;;;;;;;;;;4935330;29;20035;-74
2023/05/23 14:16:25;;;;;;;13.23;2.95;;;;;;;;;;4944328;29;20039;-75
2023/05/23 14:18:51;;;;;;;9.98;2.88;;;;;;;;;;4946873;28;20063;-74
2023/05/23 14:21:17;;;;;;;9.82;2.88;;;;;;;;;;4935634;29;20031;-74
2023/05/23 14:23:43;;;;;;;11.63;1.98;;;;;;;;;;4948872;29;20047;-75
2023/05/23 14:26:09;;;;;;;12.90;2.25;;;;;;;;;;4936764;29;20462;-75
2023/05/23 14:28:35;;;;;;;12.32;3.13;;;;;;;;;;4937139;29;20040;-75